Time;durP1;ratioP1;P1;durP2;ratioP2;P2;SDS_P1;SDS_P2;PMS_P1;PMS_P2;Temp;Humidity;BMP_temperature;BMP_pressure;BME280_temperature;BME280_humidity;BME280_pressure;Samples;Min_cycle;Max_cycle;Signal;HPM_P1;HPM_P2
2024/01/23 00:00:13;;;;;;;;;;;24.00;99.90;;;;;;5033495;28;20404;-68
2024/01/23 00:02:40;;;;;;;;;;;24.10;99.90;;;;;;5021945;28;19988;-68
2024/01/23 00:05:07;;;;;;;;;;;24.20;99.90;;;;;;5013998;28;19916;-69
2024/01/23 00:07:33;;;;;;;;;;;24.30;99.90;;;;;;5013794;28;20281;-69
2024/01/23 00:10:00;;;;;;;;;;;24.40;99.90;;;;;;4996405;28;20320;-70
2024/01/23 00:12:27;;;;;;;;;;;24.60;99.90;;;;;;5022812;28;20012;-68
2024/01/23 00:14:54;;;;;;;;;;;24.80;99.90;;;;;;5033461;28;19916;-67
2024/01/23 00:17:21;;;;;;;;;;;24.60;99.90;;;;;;5033066;28;19984;-70
2024/01/23 00:19:47;;;;;;;;;;;24.60;99.90;;;;;;5033898;28;19963;-69
2024/01/23 00:22:14;;;;;;;;;;;24.40;99.90;;;;;;5029815;28;19914;-70
2024/01/23 00:24:41;;;;;;;;;;;24.50;99.90;;;;;;5023351;28;20280;-69
2024/01/23 00:27:08;;;;;;;;;;;24.40;99.90;;;;;;5023072;28;20090;-69
2024/01/23 00:29:34;;;;;;;;;;;24.30;99.90;;;;;;5022068;28;20282;-70
2024/01/23 00:32:02;;;;;;;;;;;24.50;99.90;;;;;;5023244;28;19945;-68
2024/01/23 00:34:28;;;;;;;;;;;24.50;99.90;;;;;;5023317;28;20267;-68
2024/01/23 00:36:55;;;;;;;;;;;24.70;99.90;;;;;;5021940;28;19909;-68
2024/01/23 00:39:23;;;;;;;;;;;24.90;99.90;;;;;;5005578;28;19923;-69
2024/01/23 00:41:50;;;;;;;;;;;25.10;99.90;;;;;;5006346;28;19916;-69
2024/01/23 00:44:16;;;;;;;;;;;25.20;99.90;;;;;;5022180;28;20004;-69
2024/01/23 00:46:43;;;;;;;;;;;25.30;99.90;;;;;;5023001;28;19963;-69
2024/01/23 00:49:10;;;;;;;;;;;25.40;99.90;;;;;;5023646;28;19921;-68
2024/01/23 00:51:37;;;;;;;;;;;25.40;99.90;;;;;;5021637;28;21186;-70
2024/01/23 00:54:03;;;;;;;;;;;25.60;99.90;;;;;;5022574;28;19909;-68
2024/01/23 00:56:30;;;;;;;;;;;25.60;99.90;;;;;;5029008;28;19909;-68
2024/01/23 00:58:56;;;;;;;;;;;25.70;99.90;;;;;;5032935;28;19913;-69
2024/01/23 01:01:23;;;;;;;;;;;25.50;99.90;;;;;;5020725;28;19928;-70
2024/01/23 01:03:50;;;;;;;;;;;25.40;99.90;;;;;;5011747;28;19916;-68
2024/01/23 01:06:16;;;;;;;;;;;25.50;99.90;;;;;;5021029;28;19914;-69
2024/01/23 01:08:43;;;;;;;;;;;25.50;99.90;;;;;;5032127;28;20182;-70
2024/01/23 01:11:10;;;;;;;;;;;25.50;99.90;;;;;;5006240;28;19913;-69
2024/01/23 01:13:36;;;;;;;;;;;25.50;99.90;;;;;;5012443;28;20362;-70
2024/01/23 01:16:03;;;;;;;;;;;25.40;99.90;;;;;;5012186;28;19920;-69
2024/01/23 01:18:31;;;;;;;;;;;25.50;99.90;;;;;;5012340;28;19917;-69
2024/01/23 01:20:57;;;;;;;;;;;25.80;99.90;;;;;;4996695;28;19932;-70
2024/01/23 01:23:24;;;;;;;;;;;26.10;99.90;;;;;;5012600;28;19910;-68
2024/01/23 01:25:51;;;;;;;;;;;26.30;99.90;;;;;;5012496;28;19914;-72
2024/01/23 01:28:19;;;;;;;;;;;26.40;99.90;;;;;;5012597;28;19913;-70
2024/01/23 01:30:46;;;;;;;;;;;26.40;99.90;;;;;;5012121;28;19921;-68
2024/01/23 01:33:12;;;;;;;;;;;26.50;99.90;;;;;;5012219;28;20358;-69
2024/01/23 01:35:39;;;;;;;;;;;26.60;99.90;;;;;;5012438;28;19916;-69
2024/01/23 01:38:06;;;;;;;;;;;26.70;99.90;;;;;;5012034;28;19937;-69
2024/01/23 01:40:32;;;;;;;;;;;26.90;99.90;;;;;;5014715;28;19965;-68
2024/01/23 01:42:59;;;;;;;;;;;27.00;99.90;;;;;;5012057;28;19913;-69
2024/01/23 01:45:26;;;;;;;;;;;27.20;99.70;;;;;;4994464;28;19915;-69
2024/01/23 01:47:56;;;;;;;;;;;27.30;99.30;;;;;;5012030;28;19914;-69
2024/01/23 01:50:23;;;;;;;;;;;27.50;98.20;;;;;;5011116;28;19916;-71
2024/01/23 01:52:49;;;;;;;;;;;27.50;98.30;;;;;;5012064;28;19968;-70
2024/01/23 01:55:16;;;;;;;;;;;27.80;97.80;;;;;;5011924;28;19920;-69
2024/01/23 01:57:43;;;;;;;;;;;27.90;98.20;;;;;;5011755;28;19920;-70
2024/01/23 02:00:10;;;;;;;;;;;27.90;98.30;;;;;;5012479;28;19928;-69
2024/01/23 02:02:40;;;;;;;;;;;28.10;98.30;;;;;;5011979;28;19936;-70
2024/01/23 02:05:06;;;;;;;;;;;28.20;98.20;;;;;;5014220;28;19910;-69
2024/01/23 02:07:33;;;;;;;;;;;28.50;97.20;;;;;;5016076;28;20002;-69
2024/01/23 02:10:00;;;;;;;;;;;28.70;96.90;;;;;;5015928;28;19917;-70
2024/01/23 02:12:26;;;;;;;;;;;28.80;95.80;;;;;;5020541;28;19914;-70
2024/01/23 02:14:53;;;;;;;;;;;28.60;94.80;;;;;;4997969;28;20546;-68
2024/01/23 02:17:19;;;;;;;;;;;29.00;96.50;;;;;;5015952;28;19917;-69
2024/01/23 02:19:46;;;;;;;;;;;29.30;95.50;;;;;;5016325;28;19988;-70
2024/01/23 02:22:13;;;;;;;;;;;29.60;96.10;;;;;;5016157;28;19932;-70
2024/01/23 02:24:39;;;;;;;;;;;29.90;93.50;;;;;;5015673;28;19913;-68
2024/01/23 02:27:06;;;;;;;;;;;29.90;94.00;;;;;;5016489;28;19921;-73
2024/01/23 02:29:36;;;;;;;;;;;30.10;93.40;;;;;;5016218;28;19910;-73
2024/01/23 02:32:03;;;;;;;;;;;30.30;92.90;;;;;;5015859;28;19956;-72
2024/01/23 02:34:30;;;;;;;;;;;30.40;92.80;;;;;;5015566;28;19963;-70
2024/01/23 02:36:56;;;;;;;;;;;30.40;92.60;;;;;;5016880;28;20397;-71
2024/01/23 02:39:24;;;;;;;;;;;30.60;92.80;;;;;;5014936;28;19923;-68
2024/01/23 02:41:51;;;;;;;;;;;30.20;92.70;;;;;;5033764;28;19920;-71
2024/01/23 02:44:17;;;;;;;;;;;29.60;92.70;;;;;;5035024;28;19916;-70
2024/01/23 02:46:44;;;;;;;;;;;29.70;92.70;;;;;;5034977;28;19913;-71
2024/01/23 02:49:11;;;;;;;;;;;30.00;93.40;;;;;;5034847;28;19936;-69
2024/01/23 02:51:37;;;;;;;;;;;30.40;92.20;;;;;;5021645;28;19914;-72
2024/01/23 02:54:04;;;;;;;;;;;30.70;92.30;;;;;;5001251;28;19909;-69
2024/01/23 02:56:31;;;;;;;;;;;30.80;91.00;;;;;;5027948;28;19928;-71
2024/01/23 02:58:57;;;;;;;;;;;30.60;91.50;;;;;;5015085;28;20444;-71
2024/01/23 03:01:24;;;;;;;;;;;30.40;91.30;;;;;;5030043;28;19917;-69
2024/01/23 03:03:50;;;;;;;;;;;30.90;91.60;;;;;;5034074;28;20354;-69
2024/01/23 03:06:17;;;;;;;;;;;31.60;90.80;;;;;;5034224;28;19933;-69
2024/01/23 03:08:44;;;;;;;;;;;32.10;89.60;;;;;;5034145;28;19913;-71
2024/01/23 03:11:10;;;;;;;;;;;32.10;89.40;;;;;;5025141;28;19914;-67
2024/01/23 03:13:37;;;;;;;;;;;31.80;88.10;;;;;;5014658;28;19909;-69
2024/01/23 03:16:04;;;;;;;;;;;32.10;89.20;;;;;;5014584;28;19979;-71
2024/01/23 03:18:31;;;;;;;;;;;32.00;89.00;;;;;;5014738;28;19909;-68
2024/01/23 03:20:58;;;;;;;;;;;31.10;87.80;;;;;;5019809;28;20403;-70
2024/01/23 03:23:24;;;;;;;;;;;30.50;90.10;;;;;;5027242;28;19922;-70
2024/01/23 03:25:51;;;;;;;;;;;29.80;90.30;;;;;;5016479;28;20365;-70
2024/01/23 03:28:17;;;;;;;;;;;29.30;91.10;;;;;;5022838;28;19923;-70
2024/01/23 03:30:44;;;;;;;;;;;28.80;91.50;;;;;;5013816;28;19909;-70
2024/01/23 03:33:12;;;;;;;;;;;28.10;91.90;;;;;;4998415;28;19918;-70
2024/01/23 03:35:38;;;;;;;;;;;27.60;92.60;;;;;;5030529;28;19915;-70
2024/01/23 03:38:05;;;;;;;;;;;27.40;93.60;;;;;;5018790;28;20528;-70
2024/01/23 03:40:31;;;;;;;;;;;27.50;93.30;;;;;;5029672;28;20028;-69
2024/01/23 03:42:58;;;;;;;;;;;27.70;93.00;;;;;;5013827;28;19995;-69
2024/01/23 03:45:25;;;;;;;;;;;28.20;93.10;;;;;;5013733;28;20393;-68
2024/01/23 03:47:51;;;;;;;;;;;28.10;93.20;;;;;;5014177;28;19996;-68
2024/01/23 03:50:18;;;;;;;;;;;29.00;93.20;;;;;;5020259;28;19909;-68
2024/01/23 03:52:45;;;;;;;;;;;29.60;91.20;;;;;;5033174;28;19917;-69
2024/01/23 03:55:12;;;;;;;;;;;29.90;91.10;;;;;;5033516;28;20280;-69
2024/01/23 03:57:38;;;;;;;;;;;29.90;91.30;;;;;;5033384;28;20380;-68
2024/01/23 04:00:05;;;;;;;;;;;30.60;91.00;;;;;;5033684;28;20320;-68
2024/01/23 04:02:37;;;;;;;;;;;32.00;88.50;;;;;;5032232;28;19917;-71
2024/01/23 04:05:07;;;;;;;;;;;32.80;86.40;;;;;;5033576;28;19909;-70
2024/01/23 04:07:33;;;;;;;;;;;33.40;84.00;;;;;;5033406;28;19913;-70
2024/01/23 04:10:00;;;;;;;;;;;33.80;84.30;;;;;;5033432;28;19913;-69
2024/01/23 04:12:27;;;;;;;;;;;34.50;80.90;;;;;;5015248;28;19920;-69
2024/01/23 04:14:54;;;;;;;;;;;34.10;81.00;;;;;;5033635;28;20104;-70
2024/01/23 04:17:20;;;;;;;;;;;34.50;80.60;;;;;;5033765;28;20291;-73
2024/01/23 04:19:47;;;;;;;;;;;35.50;78.30;;;;;;5032966;28;19924;-68
2024/01/23 04:22:13;;;;;;;;;;;36.20;76.40;;;;;;5025566;28;19919;-67
2024/01/23 04:24:43;;;;;;;;;;;36.10;76.40;;;;;;5013359;28;19928;-68
2024/01/23 04:27:10;;;;;;;;;;;36.90;74.30;;;;;;5012711;28;19922;-67
2024/01/23 04:29:37;;;;;;;;;;;37.60;75.00;;;;;;5013107;28;20274;-68
2024/01/23 04:32:03;;;;;;;;;;;38.60;72.10;;;;;;5018686;28;20452;-71
2024/01/23 04:34:30;;;;;;;;;;;37.40;71.70;;;;;;5032989;28;20016;-69
2024/01/23 04:36:57;;;;;;;;;;;35.90;72.20;;;;;;5032803;28;19913;-68
2024/01/23 04:39:24;;;;;;;;;;;35.10;74.80;;;;;;5032467;28;19968;-69
2024/01/23 04:41:50;;;;;;;;;;;35.50;73.70;;;;;;5033019;28;20007;-69
2024/01/23 04:44:17;;;;;;;;;;;35.30;73.60;;;;;;5033379;28;20388;-69
2024/01/23 04:46:45;;;;;;;;;;;34.20;75.10;;;;;;5032583;28;19909;-69
2024/01/23 04:49:11;;;;;;;;;;;34.60;75.90;;;;;;5033326;28;19917;-68
2024/01/23 04:51:38;;;;;;;;;;;35.40;73.80;;;;;;5033219;28;19909;-69
2024/01/23 04:54:05;;;;;;;;;;;36.00;73.00;;;;;;5032931;28;20022;-69
2024/01/23 04:56:31;;;;;;;;;;;35.70;72.90;;;;;;5032761;28;20008;-67
2024/01/23 04:58:58;;;;;;;;;;;34.10;73.80;;;;;;5032936;28;19958;-69
2024/01/23 05:01:24;;;;;;;;;;;33.80;75.10;;;;;;5032813;28;19909;-69
2024/01/23 05:03:51;;;;;;;;;;;34.10;75.90;;;;;;5032372;28;19913;-69
2024/01/23 05:06:18;;;;;;;;;;;34.40;73.70;;;;;;5032883;28;19909;-68
2024/01/23 05:08:45;;;;;;;;;;;33.60;74.90;;;;;;5032795;28;20365;-68
2024/01/23 05:11:11;;;;;;;;;;;33.80;74.90;;;;;;5032911;28;20375;-68
2024/01/23 05:13:41;;;;;;;;;;;32.80;74.30;;;;;;5032443;28;19969;-69
2024/01/23 05:16:07;;;;;;;;;;;30.70;78.30;;;;;;5032491;28;19909;-68
2024/01/23 05:18:34;;;;;;;;;;;29.60;82.00;;;;;;5032553;28;19916;-67
2024/01/23 05:21:00;;;;;;;;;;;29.40;82.10;;;;;;5032635;28;19913;-67
2024/01/23 05:23:27;;;;;;;;;;;29.00;84.00;;;;;;5032477;28;20354;-69
2024/01/23 05:25:54;;;;;;;;;;;29.00;83.80;;;;;;5032301;28;19909;-69
2024/01/23 05:28:20;;;;;;;;;;;29.10;83.40;;;;;;5032595;28;19924;-67
2024/01/23 05:30:47;;;;;;;;;;;28.70;84.20;;;;;;5032658;28;19916;-68
2024/01/23 05:33:14;;;;;;;;;;;28.40;85.30;;;;;;5032622;28;19916;-63
2024/01/23 05:35:40;;;;;;;;;;;28.50;86.10;;;;;;5032056;28;19913;-66
2024/01/23 05:38:07;;;;;;;;;;;29.50;84.30;;;;;;5030302;28;19910;-70
2024/01/23 05:40:33;;;;;;;;;;;30.20;83.90;;;;;;5016450;28;20005;-68
2024/01/23 05:43:01;;;;;;;;;;;30.50;81.80;;;;;;5012038;28;19963;-64
2024/01/23 05:45:28;;;;;;;;;;;30.40;81.80;;;;;;5011900;28;19910;-67
2024/01/23 05:47:55;;;;;;;;;;;30.00;82.70;;;;;;5012537;28;19910;-70
2024/01/23 05:50:21;;;;;;;;;;;30.90;82.40;;;;;;5012633;28;19980;-65
2024/01/23 05:52:48;;;;;;;;;;;32.70;79.40;;;;;;5012717;28;19967;-66
2024/01/23 05:55:14;;;;;;;;;;;34.10;76.40;;;;;;5028471;28;20010;-66
2024/01/23 05:57:41;;;;;;;;;;;34.20;75.00;;;;;;5032364;28;19915;-67
2024/01/23 06:00:13;;;;;;;;;;;33.60;76.10;;;;;;5032314;28;20012;-71
2024/01/23 06:02:40;;;;;;;;;;;33.30;77.10;;;;;;5032494;28;19916;-65
2024/01/23 06:05:08;;;;;;;;;;;33.80;76.00;;;;;;5031905;28;19931;-69
2024/01/23 06:07:40;;;;;;;;;;;34.60;75.50;;;;;;5031911;28;19909;-66
2024/01/23 06:10:07;;;;;;;;;;;35.70;72.40;;;;;;5032135;28;20330;-64
2024/01/23 06:12:34;;;;;;;;;;;35.80;71.50;;;;;;5032167;28;19910;-64
2024/01/23 06:15:00;;;;;;;;;;;34.60;73.70;;;;;;5032228;28;19967;-68
2024/01/23 06:17:27;;;;;;;;;;;34.10;74.30;;;;;;5032306;28;19971;-67
2024/01/23 06:19:54;;;;;;;;;;;34.10;74.20;;;;;;5032067;28;19917;-65
2024/01/23 06:22:21;;;;;;;;;;;33.90;74.00;;;;;;5032396;28;19913;-66
2024/01/23 06:25:03;;;;;;;;;;;33.30;74.70;;;;;;5031692;28;19914;-65
2024/01/23 06:27:30;;;;;;;;;;;33.00;76.20;;;;;;5031885;28;19921;-67
2024/01/23 06:29:57;;;;;;;;;;;32.60;77.10;;;;;;5031994;28;19967;-71
2024/01/23 06:32:24;;;;;;;;;;;31.60;77.40;;;;;;5026891;28;20320;-71
2024/01/23 06:34:51;;;;;;;;;;;30.80;79.10;;;;;;5011939;28;19909;-64
2024/01/23 06:37:18;;;;;;;;;;;30.40;81.40;;;;;;5009698;28;19917;-70
2024/01/23 06:39:45;;;;;;;;;;;29.80;82.50;;;;;;5022837;28;19921;-65
2024/01/23 06:42:12;;;;;;;;;;;29.40;83.00;;;;;;5023495;28;20340;-64
2024/01/23 06:44:39;;;;;;;;;;;29.10;83.30;;;;;;5031594;28;19909;-67
2024/01/23 06:47:06;;;;;;;;;;;29.10;83.20;;;;;;5031061;28;19909;-67
2024/01/23 06:49:32;;;;;;;;;;;28.60;83.50;;;;;;5011629;28;19940;-67
2024/01/23 06:51:59;;;;;;;;;;;28.80;86.80;;;;;;5014851;28;19916;-64
2024/01/23 06:54:26;;;;;;;;;;;29.20;84.40;;;;;;5014743;28;20389;-67
2024/01/23 06:56:52;;;;;;;;;;;29.30;84.40;;;;;;5015326;28;19909;-69
2024/01/23 06:59:19;;;;;;;;;;;29.40;84.60;;;;;;5033393;28;20301;-66
2024/01/23 07:01:46;;;;;;;;;;;29.60;84.10;;;;;;5020576;28;19949;-72
2024/01/23 07:04:12;;;;;;;;;;;29.50;84.60;;;;;;5014822;28;19917;-66
2024/01/23 07:06:39;;;;;;;;;;;29.70;84.60;;;;;;5019424;28;19913;-67
2024/01/23 07:09:06;;;;;;;;;;;29.60;83.70;;;;;;5033518;28;20358;-64
2024/01/23 07:11:32;;;;;;;;;;;29.10;84.10;;;;;;5033932;28;20043;-63
2024/01/23 07:13:59;;;;;;;;;;;28.40;86.30;;;;;;5012267;28;20058;-62
2024/01/23 07:16:26;;;;;;;;;;;28.10;87.20;;;;;;5014902;28;20285;-66
2024/01/23 07:18:53;;;;;;;;;;;28.20;86.60;;;;;;5033033;28;19917;-66
2024/01/23 07:21:19;;;;;;;;;;;28.20;87.00;;;;;;5033062;28;20433;-65
2024/01/23 07:23:46;;;;;;;;;;;28.00;87.50;;;;;;5033368;28;19958;-65
2024/01/23 07:26:12;;;;;;;;;;;27.90;88.10;;;;;;5033344;28;20376;-65
2024/01/23 07:28:39;;;;;;;;;;;27.80;88.10;;;;;;5023589;28;19913;-69
2024/01/23 07:31:06;;;;;;;;;;;27.70;88.90;;;;;;5028664;28;19913;-64
2024/01/23 07:33:35;;;;;;;;;;;27.60;88.10;;;;;;5041023;28;20008;-67
2024/01/23 07:36:02;;;;;;;;;;;27.50;89.10;;;;;;5024694;28;19914;-65
2024/01/23 07:38:29;;;;;;;;;;;27.40;88.90;;;;;;5004158;28;20289;-69
2024/01/23 07:40:55;;;;;;;;;;;27.30;88.90;;;;;;5023255;28;19917;-65
2024/01/23 07:43:25;;;;;;;;;;;27.10;89.90;;;;;;5032383;28;19917;-64
2024/01/23 07:45:52;;;;;;;;;;;27.00;89.70;;;;;;5033183;28;20364;-66
2024/01/23 07:48:19;;;;;;;;;;;26.70;90.20;;;;;;5030313;28;19987;-66
2024/01/23 07:50:45;;;;;;;;;;;26.60;90.70;;;;;;5020729;28;19913;-67
2024/01/23 07:53:12;;;;;;;;;;;26.70;90.80;;;;;;5025092;28;19920;-64
2024/01/23 07:55:40;;;;;;;;;;;26.50;90.60;;;;;;5032419;28;20004;-64
2024/01/23 07:58:08;;;;;;;;;;;26.40;90.60;;;;;;5031307;28;19971;-69
2024/01/23 08:00:35;;;;;;;;;;;26.40;90.80;;;;;;5031315;28;19928;-65
2024/01/23 08:03:01;;;;;;;;;;;26.10;91.10;;;;;;5019455;28;19914;-64
2024/01/23 08:05:29;;;;;;;;;;;26.10;91.20;;;;;;5032342;28;20320;-66
2024/01/23 08:07:55;;;;;;;;;;;26.00;91.60;;;;;;5030039;28;19949;-67
2024/01/23 08:10:24;;;;;;;;;;;26.10;91.50;;;;;;5013233;28;19959;-68
2024/01/23 08:12:51;;;;;;;;;;;26.00;91.70;;;;;;5029964;28;20282;-65
2024/01/23 08:15:18;;;;;;;;;;;25.90;92.00;;;;;;5031722;28;19924;-66
2024/01/23 08:17:45;;;;;;;;;;;26.00;92.50;;;;;;5032672;28;19909;-68
2024/01/23 08:20:12;;;;;;;;;;;26.00;92.50;;;;;;5032610;28;19929;-67
2024/01/23 08:22:39;;;;;;;;;;;25.90;92.20;;;;;;5016660;28;19967;-69
2024/01/23 08:25:05;;;;;;;;;;;25.80;92.60;;;;;;5028643;28;19913;-65
2024/01/23 08:27:32;;;;;;;;;;;25.60;92.70;;;;;;5025346;28;19921;-64
2024/01/23 08:29:59;;;;;;;;;;;25.40;92.80;;;;;;5013322;28;19920;-66
2024/01/23 08:32:25;;;;;;;;;;;25.30;93.10;;;;;;5026754;28;20289;-66
2024/01/23 08:34:55;;;;;;;;;;;25.20;93.30;;;;;;5030395;28;20220;-63
2024/01/23 08:37:22;;;;;;;;;;;25.10;93.60;;;;;;5032310;28;20309;-64
2024/01/23 08:39:49;;;;;;;;;;;25.00;94.00;;;;;;5015881;28;19921;-64
2024/01/23 08:42:15;;;;;;;;;;;24.90;94.00;;;;;;5027259;28;19920;-64
2024/01/23 08:44:46;;;;;;;;;;;24.90;94.20;;;;;;5017026;28;19917;-65
2024/01/23 08:47:13;;;;;;;;;;;24.80;94.00;;;;;;5012799;28;19913;-67
2024/01/23 08:49:40;;;;;;;;;;;24.70;94.50;;;;;;5012964;28;19920;-65
2024/01/23 08:52:06;;;;;;;;;;;24.70;94.40;;;;;;5023986;28;19909;-65
2024/01/23 08:54:34;;;;;;;;;;;24.60;94.80;;;;;;5031749;28;19920;-66
2024/01/23 08:57:01;;;;;;;;;;;24.60;94.80;;;;;;5030293;28;19921;-68
2024/01/23 08:59:28;;;;;;;;;;;24.50;94.90;;;;;;5031833;28;19921;-64
2024/01/23 09:01:55;;;;;;;;;;;24.50;95.00;;;;;;5031271;28;20457;-65
2024/01/23 09:04:22;;;;;;;;;;;24.50;95.00;;;;;;5031450;28;19917;-67
2024/01/23 09:06:48;;;;;;;;;;;24.50;95.40;;;;;;5031999;28;19916;-64
2024/01/23 09:09:15;;;;;;;;;;;24.40;95.30;;;;;;5027941;28;20377;-64
2024/01/23 09:11:42;;;;;;;;;;;24.30;95.40;;;;;;5031189;28;19944;-64
2024/01/23 09:14:08;;;;;;;;;;;24.30;95.60;;;;;;5022821;28;20433;-67
2024/01/23 09:16:35;;;;;;;;;;;24.20;95.70;;;;;;5011901;28;20016;-64
2024/01/23 09:19:02;;;;;;;;;;;24.10;95.90;;;;;;5011953;28;20416;-65
2024/01/23 09:21:28;;;;;;;;;;;24.20;96.20;;;;;;5017017;28;19917;-66
2024/01/23 09:23:55;;;;;;;;;;;24.20;96.50;;;;;;5031165;28;19924;-66
2024/01/23 09:26:23;;;;;;;;;;;24.20;96.50;;;;;;5031527;28;19917;-65
2024/01/23 09:28:50;;;;;;;;;;;24.20;96.70;;;;;;5008818;28;20310;-65
2024/01/23 09:31:18;;;;;;;;;;;24.10;96.50;;;;;;5021244;28;19913;-65
2024/01/23 09:33:45;;;;;;;;;;;24.00;96.80;;;;;;4993940;28;19924;-72
2024/01/23 09:36:12;;;;;;;;;;;24.00;96.70;;;;;;5011550;28;20277;-67
2024/01/23 09:38:39;;;;;;;;;;;23.80;96.90;;;;;;5011614;28;19913;-68
2024/01/23 09:41:12;;;;;;;;;;;23.80;97.00;;;;;;5017503;28;19913;-67
2024/01/23 09:43:45;;;;;;;;;;;23.80;97.40;;;;;;5024987;28;19920;-66
2024/01/23 09:46:13;;;;;;;;;;;23.70;97.30;;;;;;5029619;28;19913;-66
2024/01/23 09:48:40;;;;;;;;;;;23.70;97.50;;;;;;5011769;28;19929;-65
2024/01/23 09:51:14;;;;;;;;;;;23.70;97.40;;;;;;5011484;28;19909;-66
2024/01/23 09:53:44;;;;;;;;;;;23.70;97.60;;;;;;5011772;28;19921;-70
2024/01/23 09:56:14;;;;;;;;;;;23.70;97.50;;;;;;5024327;28;19940;-64
2024/01/23 09:58:41;;;;;;;;;;;23.70;97.50;;;;;;5030717;28;20732;-70
2024/01/23 10:01:08;;;;;;;;;;;23.70;97.80;;;;;;5031641;28;19940;-70
2024/01/23 10:03:36;;;;;;;;;;;23.60;97.90;;;;;;5028975;28;19909;-64
2024/01/23 10:06:04;;;;;;;;;;;23.60;98.00;;;;;;5019085;28;20277;-66
2024/01/23 10:08:31;;;;;;;;;;;23.70;97.90;;;;;;5028789;28;19913;-63
2024/01/23 10:11:01;;;;;;;;;;;23.60;98.00;;;;;;5031015;28;20013;-67
2024/01/23 10:13:28;;;;;;;;;;;23.60;97.70;;;;;;5023263;28;20336;-66
2024/01/23 10:15:55;;;;;;;;;;;23.50;97.80;;;;;;5027627;28;19959;-67
2024/01/23 10:18:23;;;;;;;;;;;23.50;98.00;;;;;;5031002;28;19955;-64
2024/01/23 10:20:50;;;;;;;;;;;23.50;98.20;;;;;;5024313;28;19921;-66
2024/01/23 10:23:17;;;;;;;;;;;23.50;98.20;;;;;;5030386;28;19909;-66
2024/01/23 10:25:44;;;;;;;;;;;23.50;98.30;;;;;;5015600;28;19913;-68
2024/01/23 10:28:13;;;;;;;;;;;23.50;98.60;;;;;;5015294;28;19925;-63
2024/01/23 10:30:40;;;;;;;;;;;23.40;98.70;;;;;;5014498;28;20334;-68
2024/01/23 10:33:09;;;;;;;;;;;23.40;98.50;;;;;;5015093;28;19996;-65
2024/01/23 10:35:37;;;;;;;;;;;23.30;98.90;;;;;;5013331;28;19960;-67
2024/01/23 10:38:07;;;;;;;;;;;23.30;99.50;;;;;;5014860;28;19959;-64
2024/01/23 10:40:34;;;;;;;;;;;23.30;99.20;;;;;;5014445;28;20385;-69
2024/01/23 10:43:01;;;;;;;;;;;23.30;99.50;;;;;;5013857;28;20640;-64
2024/01/23 10:45:29;;;;;;;;;;;23.30;99.50;;;;;;5003544;28;19910;-65
2024/01/23 10:48:01;;;;;;;;;;;23.30;99.60;;;;;;4996069;28;19918;-68
2024/01/23 10:50:29;;;;;;;;;;;23.30;99.50;;;;;;4995645;28;19910;-67
2024/01/23 10:53:02;;;;;;;;;;;23.30;99.60;;;;;;4995740;28;19914;-65
2024/01/23 10:55:31;;;;;;;;;;;23.20;99.70;;;;;;5012292;28;19910;-64
2024/01/23 10:58:02;;;;;;;;;;;23.10;99.90;;;;;;5015786;28;19925;-66
2024/01/23 11:00:31;;;;;;;;;;;23.10;99.90;;;;;;5014947;28;19917;-73
2024/01/23 11:02:59;;;;;;;;;;;23.00;99.90;;;;;;5015243;28;19913;-65
2024/01/23 11:05:32;;;;;;;;;;;23.00;99.90;;;;;;5015304;28;19916;-68
2024/01/23 11:08:03;;;;;;;;;;;23.00;99.90;;;;;;5015073;28;20469;-66
2024/01/23 11:10:37;;;;;;;;;;;23.00;99.90;;;;;;5004956;28;19917;-71
2024/01/23 11:13:26;;;;;;;;;;;23.00;99.90;;;;;;4995562;28;19914;-66
2024/01/23 11:15:53;;;;;;;;;;;23.00;99.90;;;;;;4995691;28;19917;-67
2024/01/23 11:18:25;;;;;;;;;;;23.00;99.90;;;;;;4995686;28;19916;-67
2024/01/23 11:21:21;;;;;;;;;;;22.90;99.90;;;;;;4995454;28;19922;-69
2024/01/23 11:23:58;;;;;;;;;;;22.80;99.90;;;;;;4982094;28;19920;-71
2024/01/23 11:26:26;;;;;;;;;;;22.80;99.90;;;;;;5000557;28;20401;-70
2024/01/23 11:28:54;;;;;;;;;;;22.70;99.90;;;;;;5014156;28;19909;-64
2024/01/23 11:31:21;;;;;;;;;;;22.70;99.90;;;;;;5014321;28;19913;-69
2024/01/23 11:33:48;;;;;;;;;;;22.60;99.90;;;;;;5014368;28;19913;-69
2024/01/23 11:36:28;;;;;;;;;;;22.60;99.90;;;;;;5014067;28;20348;-65
2024/01/23 11:38:58;;;;;;;;;;;22.60;99.90;;;;;;5014819;28;19917;-64
2024/01/23 11:41:27;;;;;;;;;;;22.60;99.90;;;;;;5014610;28;20004;-64
2024/01/23 11:43:54;;;;;;;;;;;22.60;99.90;;;;;;5014348;28;19914;-68
2024/01/23 11:46:23;;;;;;;;;;;22.70;99.90;;;;;;5022370;28;19917;-63
2024/01/23 11:48:50;;;;;;;;;;;22.70;99.90;;;;;;5009758;28;20308;-68
2024/01/23 11:51:18;;;;;;;;;;;22.70;99.90;;;;;;5034712;28;20281;-63
2024/01/23 11:53:45;;;;;;;;;;;22.60;99.90;;;;;;5034009;28;20277;-67
2024/01/23 11:56:13;;;;;;;;;;;22.60;99.90;;;;;;5033689;28;19921;-64
2024/01/23 11:58:44;;;;;;;;;;;22.60;99.90;;;;;;5016455;28;19909;-65
2024/01/23 12:01:14;;;;;;;;;;;22.50;99.90;;;;;;5033328;28;19917;-65
2024/01/23 12:03:47;;;;;;;;;;;22.50;99.90;;;;;;5033747;28;19909;-64
2024/01/23 12:06:15;;;;;;;;;;;22.60;99.90;;;;;;5034012;28;19909;-65
2024/01/23 12:08:42;;;;;;;;;;;22.50;99.90;;;;;;5033975;28;19913;-68
2024/01/23 12:11:09;;;;;;;;;;;22.50;99.90;;;;;;5033662;28;19909;-64
2024/01/23 12:13:40;;;;;;;;;;;22.40;99.90;;;;;;5033740;28;19955;-65
2024/01/23 12:16:08;;;;;;;;;;;22.50;99.90;;;;;;5026611;28;19913;-66
2024/01/23 12:18:35;;;;;;;;;;;22.40;99.90;;;;;;5032784;28;19913;-68
2024/01/23 12:21:03;;;;;;;;;;;22.30;99.90;;;;;;5033729;28;19924;-70
2024/01/23 12:23:31;;;;;;;;;;;22.30;99.90;;;;;;5030715;28;19917;-65
2024/01/23 12:25:58;;;;;;;;;;;22.40;99.90;;;;;;5013498;28;19920;-66
2024/01/23 12:28:27;;;;;;;;;;;22.40;99.90;;;;;;5026138;28;19925;-64
2024/01/23 12:30:54;;;;;;;;;;;22.40;99.90;;;;;;5033467;28;19971;-64
2024/01/23 12:33:21;;;;;;;;;;;22.30;99.90;;;;;;5033100;28;20430;-67
2024/01/23 12:35:48;;;;;;;;;;;22.40;99.90;;;;;;5033335;28;19913;-71
2024/01/23 12:38:19;;;;;;;;;;;22.40;99.90;;;;;;5033554;28;19916;-67
2024/01/23 12:40:47;;;;;;;;;;;22.40;99.90;;;;;;5026837;28;19921;-65
2024/01/23 12:43:18;;;;;;;;;;;22.40;99.90;;;;;;5032142;28;19913;-68
2024/01/23 12:45:44;;;;;;;;;;;22.40;99.90;;;;;;5015374;28;19937;-64
2024/01/23 12:48:12;;;;;;;;;;;22.40;99.90;;;;;;5032719;28;19916;-68
2024/01/23 12:50:38;;;;;;;;;;;22.40;99.90;;;;;;5032192;28;20008;-70
2024/01/23 12:53:08;;;;;;;;;;;22.40;99.90;;;;;;5032447;28;19917;-71
2024/01/23 12:55:35;;;;;;;;;;;22.30;99.90;;;;;;5020602;28;20000;-66
2024/01/23 12:58:03;;;;;;;;;;;22.30;99.90;;;;;;5013692;28;19909;-68
2024/01/23 13:00:30;;;;;;;;;;;22.30;99.90;;;;;;5013328;28;19917;-64
2024/01/23 13:02:57;;;;;;;;;;;22.30;99.90;;;;;;5013420;28;20355;-71
2024/01/23 13:05:24;;;;;;;;;;;22.20;99.90;;;;;;5012944;28;19957;-64
2024/01/23 13:07:51;;;;;;;;;;;22.20;99.90;;;;;;5012848;28;19977;-65
2024/01/23 13:10:18;;;;;;;;;;;22.20;99.90;;;;;;5013162;28;19979;-64
2024/01/23 13:12:45;;;;;;;;;;;22.20;99.90;;;;;;5013086;28;20007;-65
2024/01/23 13:15:12;;;;;;;;;;;22.30;99.90;;;;;;5012962;28;19916;-65
2024/01/23 13:17:39;;;;;;;;;;;22.20;99.90;;;;;;5013082;28;19910;-68
2024/01/23 13:20:14;;;;;;;;;;;22.20;99.90;;;;;;5022168;28;20362;-71
2024/01/23 13:22:48;;;;;;;;;;;22.20;99.90;;;;;;5014455;28;20390;-65
2024/01/23 13:25:17;;;;;;;;;;;22.30;99.90;;;;;;5012193;28;19910;-64
2024/01/23 13:27:47;;;;;;;;;;;22.20;99.90;;;;;;5024820;28;20472;-64
2024/01/23 13:30:17;;;;;;;;;;;22.20;99.90;;;;;;5031495;28;19975;-65
2024/01/23 13:32:47;;;;;;;;;;;22.20;99.90;;;;;;5031350;28;19909;-64
2024/01/23 13:35:15;;;;;;;;;;;22.20;99.90;;;;;;5032825;28;20357;-65
2024/01/23 13:37:42;;;;;;;;;;;22.30;99.90;;;;;;5032375;28;19909;-67
2024/01/23 13:40:10;;;;;;;;;;;22.20;99.90;;;;;;5014176;28;20293;-64
2024/01/23 13:42:39;;;;;;;;;;;22.20;99.90;;;;;;5031495;28;19913;-67
2024/01/23 13:45:09;;;;;;;;;;;22.20;99.90;;;;;;5032674;28;20282;-67
2024/01/23 13:47:39;;;;;;;;;;;22.20;99.90;;;;;;5032499;28;19956;-68
2024/01/23 13:50:06;;;;;;;;;;;22.20;99.90;;;;;;5032014;28;20020;-67
2024/01/23 13:52:33;;;;;;;;;;;22.30;99.90;;;;;;5032125;28;20354;-72
2024/01/23 13:55:00;;;;;;;;;;;22.20;99.90;;;;;;5032415;28;19912;-66
2024/01/23 13:57:27;;;;;;;;;;;22.20;99.90;;;;;;5032786;28;19913;-69
2024/01/23 13:59:53;;;;;;;;;;;22.20;99.90;;;;;;5032951;28;19956;-64
2024/01/23 14:02:20;;;;;;;;;;;22.20;99.90;;;;;;5036317;28;19992;-68
2024/01/23 14:04:47;;;;;;;;;;;22.20;99.90;;;;;;5036280;28;19909;-64
2024/01/23 14:07:14;;;;;;;;;;;22.20;99.90;;;;;;5036125;28;19988;-64
2024/01/23 14:09:41;;;;;;;;;;;22.20;99.90;;;;;;5036104;28;19913;-68
2024/01/23 14:12:08;;;;;;;;;;;22.20;99.90;;;;;;5024049;28;19913;-66
2024/01/23 14:14:35;;;;;;;;;;;22.10;99.90;;;;;;5016820;28;20008;-64
2024/01/23 14:17:01;;;;;;;;;;;22.10;99.90;;;;;;5024894;28;19925;-63